createdAt,value
2023-01-24T00:01:08.651Z,4.04
2023-01-24T00:03:36.940Z,4.23
2023-01-24T00:06:05.118Z,4.13
2023-01-24T00:08:31.973Z,3.99
2023-01-24T00:10:59.903Z,3.48
2023-01-24T00:13:27.364Z,3.02
2023-01-24T00:16:18.366Z,2.91
2023-01-24T00:18:45.775Z,3.07
2023-01-24T00:21:16.891Z,3.69
2023-01-24T00:23:46.714Z,4.12
2023-01-24T00:26:14.598Z,4.14
2023-01-24T00:28:41.695Z,4.13
2023-01-24T00:31:11.513Z,3.17
2023-01-24T00:33:38.554Z,3.41
2023-01-24T00:36:06.371Z,4.04
2023-01-24T00:38:34.138Z,3.42
2023-01-24T00:41:02.237Z,3.39
2023-01-24T00:43:29.971Z,3.46
2023-01-24T00:45:57.967Z,3.71
2023-01-24T00:48:27.194Z,4.17
2023-01-24T00:50:54.694Z,4.15
2023-01-24T00:53:22.026Z,4.10
2023-01-24T00:55:49.346Z,3.07
2023-01-24T00:58:16.542Z,3.60
2023-01-24T01:00:43.349Z,3.84
2023-01-24T01:03:14.044Z,4.23
2023-01-24T01:05:43.169Z,4.19
2023-01-24T01:08:10.620Z,4.22
2023-01-24T01:10:38.257Z,4.22
2023-01-24T01:13:05.686Z,4.25
2023-01-24T01:15:33.362Z,4.15
2023-01-24T01:18:01.683Z,3.47
2023-01-24T01:20:28.804Z,3.33
2023-01-24T01:22:57.269Z,3.46
2023-01-24T01:25:24.543Z,4.12
2023-01-24T01:27:51.541Z,4.20
2023-01-24T01:30:18.620Z,3.04
2023-01-24T01:32:46.843Z,3.52
2023-01-24T01:35:13.716Z,4.21
2023-01-24T01:37:41.006Z,3.39
2023-01-24T01:40:11.970Z,3.84
2023-01-24T01:42:45.741Z,3.67
2023-01-24T01:45:36.638Z,3.56
2023-01-24T01:48:13.300Z,4.05
2023-01-24T01:50:44.035Z,4.07
2023-01-24T01:53:11.587Z,3.49
2023-01-24T01:55:45.738Z,3.85
2023-01-24T01:58:12.614Z,4.22
2023-01-24T02:00:39.743Z,4.16
2023-01-24T02:03:12.914Z,4.27
2023-01-24T02:05:40.051Z,3.51
2023-01-24T02:08:09.164Z,3.98
2023-01-24T02:10:36.300Z,4.28
2023-01-24T02:13:05.748Z,4.16
2023-01-24T02:15:32.703Z,3.10
2023-01-24T02:18:00.333Z,4.20
2023-01-24T02:20:41.077Z,4.21
2023-01-24T02:23:25.452Z,3.97
2023-01-24T02:26:03.404Z,4.21
2023-01-24T02:28:31.821Z,3.79
2023-01-24T02:30:59.367Z,4.18
2023-01-24T02:33:27.013Z,4.21
2023-01-24T02:36:14.274Z,4.17
2023-01-24T02:38:44.501Z,3.54
2023-01-24T02:41:14.769Z,3.65
2023-01-24T02:43:50.996Z,3.61
2023-01-24T02:46:17.945Z,3.20
2023-01-24T02:48:44.673Z,3.77
2023-01-24T02:51:11.768Z,3.14
2023-01-24T02:53:41.232Z,3.24
2023-01-24T02:56:10.230Z,3.27
2023-01-24T02:58:38.621Z,2.99
2023-01-24T03:01:09.114Z,3.54
2023-01-24T03:03:36.013Z,4.05
2023-01-24T03:06:03.242Z,4.12
2023-01-24T03:08:35.284Z,2.93
2023-01-24T03:11:02.628Z,3.16
2023-01-24T03:13:29.442Z,3.43
2023-01-24T03:16:00.514Z,4.20
2023-01-24T03:18:27.404Z,4.08
2023-01-24T03:20:54.921Z,3.09
2023-01-24T03:23:21.788Z,3.96
2023-01-24T03:25:48.696Z,3.76
2023-01-24T03:28:15.516Z,4.00
2023-01-24T03:30:42.490Z,4.19
2023-01-24T03:33:10.739Z,4.17
2023-01-24T03:35:37.490Z,4.20
2023-01-24T03:38:04.450Z,3.27
2023-01-24T03:40:34.328Z,4.12
2023-01-24T03:43:02.023Z,3.72
2023-01-24T03:45:31.445Z,3.97
2023-01-24T03:48:01.680Z,4.03
2023-01-24T03:50:31.991Z,3.56
2023-01-24T03:53:01.682Z,4.15
2023-01-24T03:55:28.663Z,4.17
2023-01-24T03:57:57.890Z,4.05
2023-01-24T04:00:24.931Z,3.35
2023-01-24T04:02:52.001Z,4.23
2023-01-24T04:05:18.761Z,3.24
2023-01-24T04:07:49.039Z,4.06
2023-01-24T04:10:16.409Z,4.04
2023-01-24T04:12:44.680Z,4.09
2023-01-24T04:15:16.574Z,3.60
2023-01-24T04:17:44.549Z,4.15
2023-01-24T04:20:12.442Z,4.20
2023-01-24T04:22:39.164Z,3.18
2023-01-24T04:25:09.756Z,3.12
2023-01-24T04:27:37.310Z,3.54
2023-01-24T04:30:05.339Z,3.61
2023-01-24T04:32:35.875Z,4.13
2023-01-24T04:35:03.546Z,3.79
2023-01-24T04:37:30.785Z,3.04
2023-01-24T04:39:58.115Z,4.09
2023-01-24T04:42:26.342Z,4.19
2023-01-24T04:44:53.294Z,3.86
2023-01-24T04:47:20.265Z,4.12
2023-01-24T04:49:47.453Z,4.18
2023-01-24T04:52:14.803Z,2.93
2023-01-24T04:54:41.571Z,4.08
2023-01-24T04:57:11.935Z,3.08
2023-01-24T04:59:40.362Z,4.15
2023-01-24T05:02:07.306Z,3.57
2023-01-24T05:04:35.112Z,3.47
2023-01-24T05:07:03.330Z,3.84
2023-01-24T05:09:30.114Z,4.07
2023-01-24T05:11:57.008Z,3.93
2023-01-24T05:14:23.897Z,3.40
2023-01-24T05:16:52.142Z,3.85
2023-01-24T05:19:19.448Z,3.33
2023-01-24T05:21:46.400Z,3.82
2023-01-24T05:24:13.739Z,3.93
2023-01-24T05:26:40.889Z,4.03
2023-01-24T05:29:08.845Z,3.65
2023-01-24T05:31:37.010Z,3.98
2023-01-24T05:34:05.396Z,3.83
2023-01-24T05:36:32.670Z,3.64
2023-01-24T05:38:59.435Z,2.85
2023-01-24T05:41:26.271Z,3.48
2023-01-24T05:43:53.517Z,4.01
2023-01-24T05:46:22.458Z,3.45
2023-01-24T05:48:50.205Z,3.95
2023-01-24T05:51:23.711Z,3.52
2023-01-24T05:53:50.803Z,3.86
2023-01-24T05:56:19.940Z,3.44
2023-01-24T05:58:48.147Z,3.86
2023-01-24T06:01:16.918Z,2.87
2023-01-24T06:03:46.296Z,3.85
2023-01-24T06:06:16.603Z,3.56
2023-01-24T06:08:45.323Z,3.73
2023-01-24T06:11:14.954Z,3.86
2023-01-24T06:13:42.423Z,3.84
2023-01-24T06:16:13.053Z,3.17
2023-01-24T06:18:40.639Z,3.74
2023-01-24T06:21:09.445Z,3.43
2023-01-24T06:23:37.079Z,3.90
2023-01-24T06:26:10.117Z,3.48
2023-01-24T06:28:37.997Z,2.97
2023-01-24T06:31:11.038Z,3.86
2023-01-24T06:33:52.365Z,3.75
2023-01-24T06:36:36.415Z,2.85
2023-01-24T06:39:06.087Z,3.92
2023-01-24T06:41:39.315Z,3.63
2023-01-24T06:44:07.255Z,3.87
2023-01-24T06:46:34.316Z,3.40
2023-01-24T06:49:01.080Z,2.97
2023-01-24T06:51:28.429Z,3.86
2023-01-24T06:53:55.280Z,3.81
2023-01-24T06:56:24.881Z,3.79
2023-01-24T06:58:55.781Z,3.77
2023-01-24T07:01:22.573Z,3.29
2023-01-24T07:03:49.744Z,3.69
2023-01-24T07:06:19.011Z,3.60
2023-01-24T07:08:46.065Z,3.64
2023-01-24T07:11:12.792Z,3.72
2023-01-24T07:13:39.886Z,3.56
2023-01-24T07:16:08.655Z,3.71
2023-01-24T07:18:36.375Z,3.68
2023-01-24T07:21:06.612Z,3.73
2023-01-24T07:23:35.510Z,3.24
2023-01-24T07:26:03.405Z,3.73
2023-01-24T07:28:30.666Z,3.66
2023-01-24T07:30:57.391Z,3.70
2023-01-24T07:33:26.693Z,3.08
2023-01-24T07:35:54.035Z,3.71
2023-01-24T07:38:22.652Z,3.74
2023-01-24T07:40:49.781Z,3.43
2023-01-24T07:43:16.768Z,3.55
2023-01-24T07:45:47.145Z,3.10
2023-01-24T07:48:13.893Z,3.66
2023-01-24T07:50:42.067Z,3.12
2023-01-24T07:53:08.762Z,2.97
2023-01-24T07:55:35.806Z,3.07
2023-01-24T07:58:04.023Z,3.46
2023-01-24T08:00:31.546Z,3.56
2023-01-24T08:02:58.830Z,2.68
2023-01-24T08:05:26.944Z,3.49
2023-01-24T08:07:57.039Z,3.58
2023-01-24T08:10:24.389Z,3.65
2023-01-24T08:12:55.815Z,3.68
2023-01-24T08:15:22.763Z,3.50
2023-01-24T08:17:49.716Z,3.66
2023-01-24T08:20:17.038Z,3.66
2023-01-24T08:22:57.228Z,3.23
2023-01-24T08:25:27.042Z,3.61
2023-01-24T08:27:54.775Z,3.54
2023-01-24T08:30:22.275Z,3.57
2023-01-24T08:32:49.704Z,3.45
2023-01-24T08:35:16.634Z,3.54
2023-01-24T08:37:44.942Z,2.92
2023-01-24T08:40:12.604Z,2.91
2023-01-24T08:42:40.975Z,3.23
2023-01-24T08:45:09.071Z,3.37
2023-01-24T08:47:35.796Z,2.87
2023-01-24T08:50:02.720Z,3.58
2023-01-24T08:52:32.587Z,3.61
2023-01-24T08:54:59.381Z,3.15
2023-01-24T08:57:26.167Z,3.70
2023-01-24T08:59:54.881Z,3.78
2023-01-24T09:02:21.669Z,3.44
2023-01-24T09:04:48.537Z,3.52
2023-01-24T09:07:15.619Z,2.61
2023-01-24T09:09:44.214Z,3.76
2023-01-24T09:12:11.215Z,3.70
2023-01-24T09:14:38.480Z,3.56
2023-01-24T09:17:07.227Z,3.10
2023-01-24T09:19:33.984Z,3.60
2023-01-24T09:22:00.768Z,3.38
2023-01-24T09:24:28.258Z,3.44
2023-01-24T09:26:55.343Z,3.00
2023-01-24T09:29:22.307Z,3.44
2023-01-24T09:31:49.382Z,3.59
2023-01-24T09:34:17.858Z,3.16
2023-01-24T09:36:48.704Z,2.67
2023-01-24T09:39:16.154Z,3.05
2023-01-24T09:42:10.011Z,3.67
2023-01-24T09:44:44.844Z,3.65
2023-01-24T09:47:19.559Z,2.91
2023-01-24T09:49:56.143Z,3.69
2023-01-24T09:52:31.036Z,3.64
2023-01-24T09:55:04.649Z,3.10
2023-01-24T09:57:42.805Z,3.08
2023-01-24T10:00:18.904Z,3.85
2023-01-24T10:02:45.731Z,3.46
2023-01-24T10:05:17.349Z,3.70
2023-01-24T10:08:03.714Z,3.92
2023-01-24T10:10:43.889Z,3.34
2023-01-24T10:13:32.204Z,3.64
2023-01-24T10:16:10.365Z,3.74
2023-01-24T10:18:50.862Z,3.59
2023-01-24T10:21:47.243Z,3.96
2023-01-24T10:24:19.169Z,3.12
2023-01-24T10:26:49.162Z,3.72
2023-01-24T10:29:20.198Z,3.06
2023-01-24T10:31:55.087Z,3.96
2023-01-24T10:34:32.354Z,3.93
2023-01-24T10:37:06.425Z,3.72
2023-01-24T10:39:34.061Z,3.53
2023-01-24T10:42:01.860Z,3.77
2023-01-24T10:44:38.285Z,3.68
2023-01-24T10:47:38.564Z,3.84
2023-01-24T10:50:10.467Z,3.18
2023-01-24T10:52:39.149Z,3.21
2023-01-24T10:55:25.483Z,3.70
2023-01-24T10:57:53.733Z,3.82
2023-01-24T11:00:28.410Z,3.99
2023-01-24T11:02:56.690Z,3.97
2023-01-24T11:05:25.666Z,4.00
2023-01-24T11:08:00.234Z,3.32
2023-01-24T11:10:28.953Z,3.93
2023-01-24T11:12:59.077Z,3.90
2023-01-24T11:15:28.038Z,3.90
2023-01-24T11:17:57.311Z,3.33
2023-01-24T11:20:33.978Z,3.33
2023-01-24T11:23:16.091Z,3.99
2023-01-24T11:26:00.907Z,3.98
2023-01-24T11:28:29.198Z,3.96
2023-01-24T11:30:57.775Z,4.08
2023-01-24T11:33:41.239Z,3.48
2023-01-24T11:36:34.169Z,3.92
2023-01-24T11:39:14.714Z,3.99
2023-01-24T11:41:50.493Z,3.74
2023-01-24T11:44:43.512Z,4.01
2023-01-24T11:47:15.156Z,3.95
2023-01-24T11:50:18.145Z,4.12
2023-01-24T11:53:08.560Z,4.15
2023-01-24T11:55:46.536Z,3.91
2023-01-24T11:58:35.955Z,3.96
2023-01-24T12:01:13.250Z,3.88
2023-01-24T12:03:58.144Z,3.46
2023-01-24T12:06:36.013Z,3.76
2023-01-24T12:09:18.101Z,3.47
2023-01-24T12:11:56.070Z,3.87
2023-01-24T12:14:58.788Z,3.25
2023-01-24T12:17:56.079Z,3.81
2023-01-24T12:20:42.042Z,3.50
2023-01-24T12:23:20.318Z,3.73
2023-01-24T12:25:50.825Z,3.92
2023-01-24T12:28:27.960Z,3.93
2023-01-24T12:30:58.473Z,3.83
2023-01-24T12:33:31.382Z,3.89
2023-01-24T12:36:02.661Z,3.75
2023-01-24T12:38:32.805Z,3.88
2023-01-24T12:41:07.324Z,3.95
2023-01-24T12:43:52.493Z,3.84
2023-01-24T12:46:27.063Z,4.05
2023-01-24T12:49:14.606Z,3.82
2023-01-24T12:51:46.857Z,4.13
2023-01-24T12:54:17.859Z,4.12
2023-01-24T12:56:51.876Z,3.52
2023-01-24T12:59:25.520Z,3.49
2023-01-24T13:02:39.024Z,3.30
2023-01-24T13:05:18.936Z,3.94
2023-01-24T13:07:55.801Z,3.16
2023-01-24T13:10:29.709Z,3.94
2023-01-24T13:13:00.209Z,3.45
2023-01-24T13:15:37.858Z,3.98
2023-01-24T13:18:17.134Z,3.96
2023-01-24T13:20:55.923Z,4.07
2023-01-24T13:23:47.753Z,3.68
2023-01-24T13:26:44.245Z,3.71
2023-01-24T13:29:22.536Z,4.00
2023-01-24T13:32:06.753Z,3.37
2023-01-24T13:34:37.046Z,3.43
2023-01-24T13:37:05.125Z,3.32
2023-01-24T13:39:34.416Z,3.14
2023-01-24T13:42:04.491Z,2.62
2023-01-24T13:44:33.594Z,3.41
2023-01-24T13:47:05.438Z,2.66
2023-01-24T13:49:46.591Z,3.82
2023-01-24T13:52:45.247Z,3.81
2023-01-24T13:55:54.957Z,3.81
2023-01-24T13:58:25.709Z,3.12
2023-01-24T14:00:58.390Z,2.70
2023-01-24T14:03:30.559Z,3.61
2023-01-24T14:06:07.308Z,3.76
2023-01-24T14:08:44.448Z,3.11
2023-01-24T14:11:22.572Z,3.20
2023-01-24T14:13:58.956Z,3.68
2023-01-24T14:16:57.683Z,3.71
2023-01-24T14:19:32.373Z,3.71
2023-01-24T14:22:05.726Z,2.99
2023-01-24T14:24:36.496Z,3.57
2023-01-24T14:27:18.282Z,3.15
2023-01-24T14:29:48.939Z,3.79
2023-01-24T14:32:24.188Z,3.70
2023-01-24T14:35:04.160Z,3.77
2023-01-24T14:37:32.116Z,3.78
2023-01-24T14:40:13.187Z,3.76
2023-01-24T14:42:40.708Z,3.74
2023-01-24T14:45:17.404Z,3.49
2023-01-24T14:47:48.224Z,3.53
2023-01-24T14:50:29.200Z,3.10
2023-01-24T14:52:56.809Z,3.16
2023-01-24T14:55:35.852Z,3.71
2023-01-24T14:58:16.915Z,3.48
2023-01-24T15:00:43.816Z,3.68
2023-01-24T15:03:16.544Z,3.49
2023-01-24T15:05:51.573Z,3.66
2023-01-24T15:08:18.913Z,3.68
2023-01-24T15:10:45.960Z,3.25
2023-01-24T15:13:20.967Z,3.75
2023-01-24T15:15:48.221Z,3.52
2023-01-24T15:18:31.367Z,3.75
2023-01-24T15:21:00.467Z,3.74
2023-01-24T15:23:33.409Z,3.28
2023-01-24T15:26:38.697Z,3.78
2023-01-24T15:29:40.451Z,3.78
2023-01-24T15:32:30.580Z,3.79
2023-01-24T15:35:28.619Z,3.76
2023-01-24T15:38:25.695Z,3.74
2023-01-24T15:41:13.933Z,3.68
2023-01-24T15:43:47.799Z,3.69
2023-01-24T15:46:20.887Z,3.65
2023-01-24T15:48:57.397Z,3.65
2023-01-24T15:51:31.375Z,3.53
2023-01-24T15:53:59.728Z,3.01
2023-01-24T15:56:35.319Z,2.50
2023-01-24T15:59:02.548Z,3.53
2023-01-24T16:01:31.922Z,3.59
2023-01-24T16:04:12.521Z,3.45
2023-01-24T16:06:39.185Z,3.45
2023-01-24T16:09:07.626Z,3.36
2023-01-24T16:11:35.559Z,3.39
2023-01-24T16:14:05.392Z,3.38
2023-01-24T16:16:35.393Z,3.25
2023-01-24T16:19:02.212Z,2.49
2023-01-24T16:21:29.254Z,3.33
2023-01-24T16:23:55.988Z,3.33
2023-01-24T16:26:26.466Z,3.16
2023-01-24T16:28:53.655Z,3.29
2023-01-24T16:31:22.202Z,3.27
2023-01-24T16:33:49.434Z,2.84
2023-01-24T16:36:22.809Z,2.44
2023-01-24T16:39:06.266Z,2.88
2023-01-24T16:41:46.437Z,2.64
2023-01-24T16:44:13.960Z,3.10
2023-01-24T16:46:50.343Z,2.45
2023-01-24T16:49:18.052Z,2.26
2023-01-24T16:51:46.327Z,2.88
2023-01-24T16:54:17.138Z,1.92
2023-01-24T16:56:45.459Z,2.95
2023-01-24T16:59:14.538Z,3.02
2023-01-24T17:01:41.751Z,2.27
2023-01-24T17:04:10.023Z,2.83
2023-01-24T17:06:36.821Z,2.99
2023-01-24T17:09:07.397Z,2.98
2023-01-24T17:11:35.114Z,2.31
2023-01-24T17:14:04.469Z,2.23
2023-01-24T17:16:33.559Z,2.93
2023-01-24T17:19:01.636Z,2.38
2023-01-24T17:21:28.818Z,2.60
2023-01-24T17:23:55.946Z,1.82
2023-01-24T17:26:23.265Z,2.91
2023-01-24T17:28:50.173Z,2.44
2023-01-24T17:31:20.553Z,2.95
2023-01-24T17:33:47.813Z,2.97
2023-01-24T17:36:19.083Z,2.29
2023-01-24T17:38:53.463Z,2.96
2023-01-24T17:41:23.909Z,2.53
2023-01-24T17:43:53.338Z,2.07
2023-01-24T17:46:22.294Z,3.01
2023-01-24T17:48:50.852Z,1.90
2023-01-24T17:51:19.451Z,2.53
2023-01-24T17:53:48.668Z,2.51
2023-01-24T17:56:17.496Z,1.78
2023-01-24T17:58:45.432Z,2.50
2023-01-24T18:01:18.245Z,2.65
2023-01-24T18:03:46.908Z,1.70
2023-01-24T18:06:13.930Z,2.32
2023-01-24T18:08:41.572Z,2.97
2023-01-24T18:11:15.569Z,1.82
2023-01-24T18:13:42.951Z,2.67
2023-01-24T18:16:14.430Z,2.50
2023-01-24T18:18:42.363Z,2.86
2023-01-24T18:21:15.189Z,2.70
2023-01-24T18:23:43.384Z,2.71
2023-01-24T18:26:12.962Z,1.49
2023-01-24T18:28:40.566Z,1.65
2023-01-24T18:31:31.725Z,1.69
2023-01-24T18:33:59.057Z,1.58
2023-01-24T18:36:30.885Z,1.71
2023-01-24T18:39:02.250Z,1.73
2023-01-24T18:41:31.957Z,2.69
2023-01-24T18:43:59.925Z,2.65
2023-01-24T18:46:28.960Z,1.43
2023-01-24T18:48:56.553Z,2.58
2023-01-24T18:51:24.265Z,1.63
2023-01-24T18:53:53.976Z,2.32
2023-01-24T18:56:21.380Z,1.49
2023-01-24T18:58:51.516Z,2.01
2023-01-24T19:03:46.943Z,1.86
2023-01-24T19:06:17.571Z,1.86
2023-01-24T19:09:01.377Z,2.44
2023-01-24T19:11:39.148Z,2.45
2023-01-24T19:14:08.501Z,1.69
2023-01-24T19:16:39.321Z,2.31
2023-01-24T19:19:07.900Z,2.46
2023-01-24T19:21:39.280Z,1.90
2023-01-24T19:24:07.150Z,1.35
2023-01-24T19:26:35.983Z,1.55
2023-01-24T19:29:03.473Z,1.80
2023-01-24T19:31:32.695Z,2.34
2023-01-24T19:34:01.048Z,1.48
2023-01-24T19:36:28.704Z,1.17
2023-01-24T19:38:59.530Z,1.84
2023-01-24T19:41:32.289Z,1.73
2023-01-24T19:44:21.273Z,2.23
2023-01-24T19:46:51.132Z,1.69
2023-01-24T19:49:34.010Z,1.52
2023-01-24T19:52:01.804Z,2.19
2023-01-24T19:54:28.780Z,2.31
2023-01-24T19:56:55.661Z,2.41
2023-01-24T19:59:24.459Z,1.79
2023-01-24T20:01:51.542Z,2.42
2023-01-24T20:04:24.786Z,1.72
2023-01-24T20:06:53.810Z,1.91
2023-01-24T20:09:23.674Z,1.44
2023-01-24T20:11:52.088Z,2.44
2023-01-24T20:14:34.050Z,2.09
2023-01-24T20:17:04.619Z,1.39
2023-01-24T20:19:31.990Z,1.34
2023-01-24T20:22:03.498Z,1.29
2023-01-24T20:24:33.000Z,2.29
2023-01-24T20:27:02.870Z,1.81
2023-01-24T20:29:33.667Z,1.38
2023-01-24T20:32:11.849Z,2.01
2023-01-24T20:34:39.466Z,2.32
2023-01-24T20:37:06.461Z,2.37
2023-01-24T20:39:33.422Z,2.11
2023-01-24T20:42:00.266Z,1.39
2023-01-24T20:44:34.509Z,2.34
2023-01-24T20:47:05.887Z,2.39
2023-01-24T20:49:35.206Z,1.92
2023-01-24T20:52:02.182Z,1.93
2023-01-24T20:54:29.280Z,2.06
2023-01-24T20:56:56.269Z,1.86
2023-01-24T20:59:29.619Z,1.91
2023-01-24T21:02:02.601Z,2.05
2023-01-24T21:04:45.380Z,1.11
2023-01-24T21:07:14.592Z,1.12
2023-01-24T21:09:44.533Z,1.56
2023-01-24T21:12:14.381Z,1.54
2023-01-24T21:14:42.804Z,1.76
2023-01-24T21:17:10.476Z,2.22
2023-01-24T21:19:38.730Z,1.70
2023-01-24T21:22:06.786Z,1.45
2023-01-24T21:24:34.261Z,2.28
2023-01-24T21:27:05.010Z,1.33
2023-01-24T21:29:32.111Z,1.38
2023-01-24T21:32:00.057Z,1.61
2023-01-24T21:34:30.617Z,1.90
2023-01-24T21:36:59.244Z,1.78
2023-01-24T21:39:29.230Z,1.44
2023-01-24T21:41:58.497Z,1.57
2023-01-24T21:44:30.111Z,1.33
2023-01-24T21:46:57.372Z,0.91
2023-01-24T21:49:30.696Z,1.47
2023-01-24T21:52:03.165Z,1.12
2023-01-24T21:54:32.425Z,2.05
2023-01-24T21:57:01.167Z,2.17
2023-01-24T21:59:33.623Z,1.83
2023-01-24T22:02:02.284Z,1.48
2023-01-24T22:04:32.435Z,1.03
2023-01-24T22:07:02.848Z,2.23
2023-01-24T22:09:30.706Z,1.85
2023-01-24T22:12:07.079Z,1.90
2023-01-24T22:14:35.241Z,1.28
2023-01-24T22:17:07.063Z,2.06
2023-01-24T22:19:42.239Z,2.03
2023-01-24T22:22:54.596Z,2.10
2023-01-24T22:25:50.355Z,1.82
2023-01-24T22:28:20.002Z,0.83
2023-01-24T22:30:48.001Z,2.03
2023-01-24T22:33:18.004Z,2.15
2023-01-24T22:35:47.620Z,2.10
2023-01-24T22:38:14.567Z,1.68
2023-01-24T22:40:42.944Z,1.76
2023-01-24T22:43:11.694Z,1.37
2023-01-24T22:45:38.637Z,1.58
2023-01-24T22:48:12.104Z,1.09
2023-01-24T22:50:39.156Z,1.61
2023-01-24T22:53:08.230Z,1.53
2023-01-24T22:55:37.555Z,1.06
2023-01-24T22:58:04.700Z,1.53
2023-01-24T23:00:34.564Z,0.69
2023-01-24T23:03:01.586Z,2.00
2023-01-24T23:05:28.958Z,2.00
2023-01-24T23:08:00.254Z,1.94
2023-01-24T23:10:26.997Z,1.81
2023-01-24T23:12:53.744Z,1.36
2023-01-24T23:15:20.770Z,0.90
2023-01-24T23:17:52.500Z,1.88
2023-01-24T23:20:19.675Z,1.40
2023-01-24T23:22:46.977Z,1.97
2023-01-24T23:25:14.277Z,1.32
2023-01-24T23:27:41.076Z,0.65
2023-01-24T23:30:25.112Z,0.66
2023-01-24T23:33:00.447Z,1.47
2023-01-24T23:35:27.379Z,1.79
2023-01-24T23:37:54.701Z,1.68
2023-01-24T23:40:21.505Z,1.42
2023-01-24T23:42:49.934Z,1.80
2023-01-24T23:45:18.954Z,0.90
2023-01-24T23:47:46.312Z,1.75
2023-01-24T23:50:16.414Z,1.76
2023-01-24T23:52:46.531Z,1.11
2023-01-24T23:55:15.070Z,1.06
2023-01-24T23:57:42.077Z,0.71
